Pisa / San Giusto - Galileo Galilei International Airport LIRP

Flugplatz Daten

Name: Pisa / San Giusto - Galileo Galilei International Airport

Ident: LIRP

Lat: 43,68389893

Long: 10,3927002

Platzhöhe: 6 ft

IataCode: PSA

City: Pisa

Homepage: http://www.pisa-airport.com/

Metar

2021/08/05 13:15
LIRP 051315Z 25017KT 9999 SCT025 SCT040 25/20 Q1010 TEMPO 24015G25KT

Taf

2021/08/05 12:26
TAF LIRP 051100Z 0512/0612 24010KT 9999 SCT025 SCT040
TEMPO 0512/0520 22018G30KT
BECMG 0603/0605 11006KT
BECMG 0610/0612 22012KT
Gewünschte Webcam nicht vorhanden? Dann fügen Sie eine hinzu. Sie wird dann so schnell wie möglich freigeschaltet
Url: Title: